KI5FU Weather Reports


Display with metric or nautical units.
time (UTC)temp
F
wind
direction
speed
MPH
gust
MPH
rain 1hr
in
rain 24hr
in
rain mn
in
humidity
%
barometer
mb
20191215220110 80 171 9.0 13.0 0.00 0.00 0.00 55 1004.6
20191215214642 80 164 8.0 12.0 0.00 0.00 0.00 55 1004.6
20191215213054 80 210 8.0 10.0 0.00 0.00 0.00 54 1004.9
20191215211557 80 178 8.0 13.0 0.00 0.00 0.00 54 1004.8
20191215210112 80 190 7.0 11.0 0.00 0.00 0.00 54 1004.8
20191215203056 80 157 8.0 14.0 0.00 0.00 0.00 55 1005.1
20191215201614 80 184 11.0 14.0 0.00 0.00 0.00 56 1005.2
20191215200116 79 193 9.0 19.0 0.00 0.00 0.00 58 1005.5
20191215194558 79 150 9.0 16.0 0.00 0.00 0.00 59 1005.6
20191215193111 78 180 9.0 16.0 0.00 0.00 0.00 59 1005.9
20191215191513 78 181 10.0 18.0 0.00 0.00 0.00 60 1006.2
20191215190045 78 174 11.0 17.0 0.00 0.00 0.00 60 1006.4
20191215184533 77 207 12.0 17.0 0.00 0.00 0.00 60 1006.6
20191215183025 77 177 10.0 16.0 0.00 0.00 0.00 61 1007.0
20191215181509 76 211 12.0 19.0 0.00 0.00 0.00 62 1007.4
20191215180005 76 200 13.0 20.0 0.00 0.00 0.00 63 1007.9
20191215174506 76 193 11.0 19.0 0.00 0.00 0.00 64 1008.1
20191215173312 75 176 13.0 21.0 0.00 0.00 0.00 66 1008.3
20191215171705 75 196 12.0 20.0 0.00 0.00 0.00 68 1008.6
20191215170246 74 200 13.0 20.0 0.00 0.00 0.00 71 1008.7
20191215164753 73 229 13.0 18.0 0.00 0.00 0.00 74 1008.8
20191215163206 72 201 11.0 20.0 0.00 0.00 0.00 78 1008.8
20191215161603 70 207 13.0 18.0 0.00 0.00 0.00 80 1008.7
20191215160106 70 187 11.0 21.0 0.00 0.00 0.00 82 1008.8
20191215154600 69 197 12.0 18.0 0.00 0.00 0.00 83 1008.5
20191215153234 68 209 9.0 11.0 0.00 0.00 0.00 84 1008.5
20191215151656 67 204 8.0 11.0 0.00 0.00 0.00 84 1008.4
20191215150201 66 198 9.0 12.0 0.00 0.00 0.00 84 1008.0
20191215144611 65 194 7.0 10.0 0.00 0.00 0.00 84 1008.0
20191215143112 63 165 5.0 7.0 0.00 0.00 0.00 84 1008.0
20191215141545 63 184 3.0 6.0 0.00 0.00 0.00 84 1008.0
20191215140043 62 182 4.0 6.0 0.00 0.00 0.00 84 1007.9
20191215134532 62 196 4.0 7.0 0.00 0.00 0.00 84 1008.0
20191215133026 62 203 4.0 7.0 0.00 0.00 0.00 84 1007.8
20191215131529 62 212 5.0 10.0 0.00 0.00 0.00 84 1007.6
20191215130037 62 206 5.0 7.0 0.00 0.00 0.00 84 1007.4
20191215124542 61 211 6.0 9.0 0.00 0.00 0.00 84 1007.1
20191215123116 62 195 8.0 10.0 0.00 0.00 0.00 84 1007.0
20191215121544 62 194 9.0 13.0 0.00 0.00 0.00 84 1006.9
20191215120014 61 183 10.0 14.0 0.00 0.00 0.00 84 1006.8
20191215114540 60 177 7.0 11.0 0.00 0.00 0.00 83 1006.4
20191215113005 60 200 6.0 10.0 0.00 0.00 0.00 83 1006.3
20191215111653 59 193 7.0 10.0 0.00 0.00 0.00 83 1006.2
20191215110234 58 184 7.0 9.0 0.00 0.00 0.00 83 1006.3
20191215104744 58 165 5.0 8.0 0.00 0.00 0.00 83 1006.4
20191215103143 51 170 0.0 0.0 0.00 0.00 0.00 81 1006.4
20191215101810 50 170 0.0 0.0 0.00 0.00 0.00 80 1006.4
20191215100140 52 170 0.0 0.0 0.00 0.00 0.00 80 1006.4
20191215094901 53 170 0.0 0.0 0.00 0.00 0.00 80 1006.3
20191215093127 54 170 0.0 1.0 0.00 0.00 0.00 79 1006.3
20191215091645 55 170 1.0 3.0 0.00 0.00 0.00 78 1006.2
20191215090135 55 170 0.0 0.0 0.00 0.00 0.00 78 1006.2
20191215084706 55 170 1.0 3.0 0.00 0.00 0.00 77 1006.2
20191215083206 56 170 0.0 0.0 0.00 0.00 0.00 77 1006.2
20191215081652 56 170 1.0 2.0 0.00 0.00 0.00 76 1006.3
20191215080054 56 170 1.0 3.0 0.00 0.00 0.00 76 1006.1
20191215074607 56 170 1.0 3.0 0.00 0.00 0.00 76 1006.2
20191215073151 57 170 2.0 5.0 0.00 0.00 0.00 77 1006.0
20191215071631 57 178 2.0 4.0 0.00 0.00 0.00 77 1006.0
20191215070103 57 178 2.0 4.0 0.00 0.00 0.00 77 1006.0
20191215064550 57 178 2.0 5.0 0.00 0.00 0.00 78 1005.9
20191215063031 57 178 2.0 5.0 0.00 0.00 0.00 77 1006.1
20191215061526 56 147 0.0 2.0 0.00 0.00 0.00 76 1006.2
20191215060035 55 147 0.0 0.0 0.00 0.00 0.00 75 1006.4
20191215054554 56 147 0.0 1.0 0.00 0.00 0.00 74 1006.5
20191215053136 56 147 0.0 1.0 0.00 0.00 0.00 72 1006.6
20191215051525 55 147 0.0 0.0 0.00 0.00 0.00 70 1006.7
20191215050020 56 147 0.0 0.0 0.00 0.00 0.00 69 1006.7
20191215044519 56 147 0.0 0.0 0.00 0.00 0.00 67 1006.6
20191215043034 58 147 0.0 0.0 0.00 0.00 0.00 66 1006.7
20191215041533 60 147 0.0 2.0 0.00 0.00 0.00 65 1006.8
20191215040016 61 160 3.0 6.0 0.00 0.00 0.00 65 1006.7
20191215034537 61 170 3.0 5.0 0.00 0.00 0.00 64 1006.6
20191215033010 61 166 4.0 8.0 0.00 0.00 0.00 62 1006.4
20191215031516 61 161 4.0 7.0 0.00 0.00 0.00 61 1006.4
20191215030013 61 163 6.0 12.0 0.00 0.00 0.00 59 1006.3
20191215024518 62 169 5.0 8.0 0.00 0.00 0.00 56 1006.0
20191215023007 62 192 8.0 11.0 0.00 0.00 0.00 53 1005.8
20191215021509 63 169 7.0 12.0 0.00 0.00 0.00 51 1005.8
20191215020011 63 155 6.0 9.0 0.00 0.00 0.00 48 1005.8
20191215014508 64 164 6.0 10.0 0.00 0.00 0.00 46 1005.7
20191215013005 65 154 7.0 10.0 0.00 0.00 0.00 45 1005.6
20191215011507 66 161 5.0 9.0 0.00 0.00 0.00 44 1005.5
20191215010003 67 162 7.0 10.0 0.00 0.00 0.00 44 1005.5
20191215004504 67 150 6.0 11.0 0.00 0.00 0.00 43 1005.4
20191215003003 68 147 4.0 8.0 0.00 0.00 0.00 41 1005.5
20191215001518 68 134 4.0 8.0 0.00 0.00 0.00 40 1005.4
20191214234502 71 123 2.0 6.0 0.00 0.00 0.00 36 1005.4
20191214233222 73 129 3.0 7.0 0.00 0.00 0.00 35 1005.2
20191214231744 74 151 5.0 8.0 0.00 0.00 0.00 34 1005.5
20191214230235 75 137 4.0 8.0 0.00 0.00 0.00 32 1005.5
20191214224651 76 149 6.0 10.0 0.00 0.00 0.00 31 1005.6
20191214223225 77 138 6.0 10.0 0.00 0.00 0.00 30 1005.7
20191214221645 78 138 7.0 11.0 0.00 0.00 0.00 28 1005.8